sensor_id;sensor_type;location;lat;lon;timestamp;temperature;humidity
12819;DHT22;6474;53.474;9.894;2023-05-17T00:02:15;10.20;60.30
12819;DHT22;6474;53.474;9.894;2023-05-17T00:04:43;10.20;60.40
12819;DHT22;6474;53.474;9.894;2023-05-17T00:07:13;10.10;60.40
12819;DHT22;6474;53.474;9.894;2023-05-17T00:09:41;10.10;60.50
12819;DHT22;6474;53.474;9.894;2023-05-17T00:12:09;10.00;60.40
12819;DHT22;6474;53.474;9.894;2023-05-17T00:14:37;10.00;60.40
12819;DHT22;6474;53.474;9.894;2023-05-17T00:17:04;10.00;60.40
12819;DHT22;6474;53.474;9.894;2023-05-17T00:19:33;9.90;61.60
12819;DHT22;6474;53.474;9.894;2023-05-17T00:22:00;9.90;61.70
12819;DHT22;6474;53.474;9.894;2023-05-17T00:24:30;9.80;61.70
12819;DHT22;6474;53.474;9.894;2023-05-17T00:26:57;9.80;61.70
12819;DHT22;6474;53.474;9.894;2023-05-17T00:29:25;9.80;61.70
12819;DHT22;6474;53.474;9.894;2023-05-17T00:31:53;9.70;61.80
12819;DHT22;6474;53.474;9.894;2023-05-17T00:34:21;9.70;61.80
12819;DHT22;6474;53.474;9.894;2023-05-17T00:36:49;9.70;61.90
12819;DHT22;6474;53.474;9.894;2023-05-17T00:39:16;9.60;61.80
12819;DHT22;6474;53.474;9.894;2023-05-17T00:41:46;9.60;61.90
12819;DHT22;6474;53.474;9.894;2023-05-17T00:44:13;9.50;61.80
12819;DHT22;6474;53.474;9.894;2023-05-17T00:46:41;9.50;61.80
12819;DHT22;6474;53.474;9.894;2023-05-17T00:49:09;9.50;61.80
12819;DHT22;6474;53.474;9.894;2023-05-17T00:51:38;9.50;61.80
12819;DHT22;6474;53.474;9.894;2023-05-17T00:54:06;9.40;61.70
12819;DHT22;6474;53.474;9.894;2023-05-17T00:56:33;9.40;61.70
12819;DHT22;6474;53.474;9.894;2023-05-17T00:59:04;9.30;61.60
12819;DHT22;6474;53.474;9.894;2023-05-17T01:01:33;9.30;61.60
12819;DHT22;6474;53.474;9.894;2023-05-17T01:04:02;9.30;61.60
12819;DHT22;6474;53.474;9.894;2023-05-17T01:06:30;9.20;61.50
12819;DHT22;6474;53.474;9.894;2023-05-17T01:08:58;9.30;61.60
12819;DHT22;6474;53.474;9.894;2023-05-17T01:11:32;9.30;61.60
12819;DHT22;6474;53.474;9.894;2023-05-17T01:14:13;9.30;61.60
12819;DHT22;6474;53.474;9.894;2023-05-17T01:16:49;9.40;61.70
12819;DHT22;6474;53.474;9.894;2023-05-17T01:19:35;9.40;61.70
12819;DHT22;6474;53.474;9.894;2023-05-17T01:22:13;9.50;61.80
12819;DHT22;6474;53.474;9.894;2023-05-17T01:24:49;9.50;61.80
12819;DHT22;6474;53.474;9.894;2023-05-17T01:27:21;9.60;61.90
12819;DHT22;6474;53.474;9.894;2023-05-17T01:29:51;9.60;61.80
12819;DHT22;6474;53.474;9.894;2023-05-17T01:32:21;9.60;61.80
12819;DHT22;6474;53.474;9.894;2023-05-17T01:34:49;9.50;61.60
12819;DHT22;6474;53.474;9.894;2023-05-17T01:37:17;9.50;61.60
12819;DHT22;6474;53.474;9.894;2023-05-17T01:39:45;9.50;61.60
12819;DHT22;6474;53.474;9.894;2023-05-17T01:42:22;9.40;61.60
12819;DHT22;6474;53.474;9.894;2023-05-17T01:44:59;9.40;61.70
12819;DHT22;6474;53.474;9.894;2023-05-17T01:47:38;9.40;61.70
12819;DHT22;6474;53.474;9.894;2023-05-17T01:50:09;9.30;61.60
12819;DHT22;6474;53.474;9.894;2023-05-17T01:52:47;9.20;61.50
12819;DHT22;6474;53.474;9.894;2023-05-17T01:55:21;9.20;61.50
12819;DHT22;6474;53.474;9.894;2023-05-17T01:57:54;9.20;61.50
12819;DHT22;6474;53.474;9.894;2023-05-17T02:00:24;9.10;61.40
12819;DHT22;6474;53.474;9.894;2023-05-17T02:02:52;9.10;61.40
12819;DHT22;6474;53.474;9.894;2023-05-17T02:05:20;9.00;61.30
12819;DHT22;6474;53.474;9.894;2023-05-17T02:07:48;9.00;61.30
12819;DHT22;6474;53.474;9.894;2023-05-17T02:10:15;8.90;61.20
12819;DHT22;6474;53.474;9.894;2023-05-17T02:12:43;8.90;61.20
12819;DHT22;6474;53.474;9.894;2023-05-17T02:15:12;8.80;61.10
12819;DHT22;6474;53.474;9.894;2023-05-17T02:17:42;8.80;61.30
12819;DHT22;6474;53.474;9.894;2023-05-17T02:20:10;8.80;61.40
12819;DHT22;6474;53.474;9.894;2023-05-17T02:22:38;8.70;61.30
12819;DHT22;6474;53.474;9.894;2023-05-17T02:25:07;8.70;61.40
12819;DHT22;6474;53.474;9.894;2023-05-17T02:27:35;8.70;61.40
12819;DHT22;6474;53.474;9.894;2023-05-17T02:30:04;8.70;61.50
12819;DHT22;6474;53.474;9.894;2023-05-17T02:32:34;8.60;61.50
12819;DHT22;6474;53.474;9.894;2023-05-17T02:35:02;8.60;61.50
12819;DHT22;6474;53.474;9.894;2023-05-17T02:37:30;8.60;61.60
12819;DHT22;6474;53.474;9.894;2023-05-17T02:39:58;8.60;61.80
12819;DHT22;6474;53.474;9.894;2023-05-17T02:42:26;8.60;61.80
12819;DHT22;6474;53.474;9.894;2023-05-17T02:44:54;8.60;61.80
12819;DHT22;6474;53.474;9.894;2023-05-17T02:47:23;8.70;61.80
12819;DHT22;6474;53.474;9.894;2023-05-17T02:49:52;8.70;61.70
12819;DHT22;6474;53.474;9.894;2023-05-17T02:52:20;8.70;61.60
12819;DHT22;6474;53.474;9.894;2023-05-17T02:54:48;8.80;61.60
12819;DHT22;6474;53.474;9.894;2023-05-17T02:57:17;8.80;61.60
12819;DHT22;6474;53.474;9.894;2023-05-17T02:59:45;8.80;61.50
12819;DHT22;6474;53.474;9.894;2023-05-17T03:02:13;8.80;61.40
12819;DHT22;6474;53.474;9.894;2023-05-17T03:04:40;8.90;61.60
12819;DHT22;6474;53.474;9.894;2023-05-17T03:07:10;8.90;61.60
12819;DHT22;6474;53.474;9.894;2023-05-17T03:09:38;8.90;61.40
12819;DHT22;6474;53.474;9.894;2023-05-17T03:12:08;8.90;61.20
12819;DHT22;6474;53.474;9.894;2023-05-17T03:14:36;8.90;61.20
12819;DHT22;6474;53.474;9.894;2023-05-17T03:17:04;8.90;61.90
12819;DHT22;6474;53.474;9.894;2023-05-17T03:19:32;8.90;61.20
12819;DHT22;6474;53.474;9.894;2023-05-17T03:22:00;8.90;61.20
12819;DHT22;6474;53.474;9.894;2023-05-17T03:24:29;8.80;61.00
12819;DHT22;6474;53.474;9.894;2023-05-17T03:26:57;8.80;61.00
12819;DHT22;6474;53.474;9.894;2023-05-17T03:29:25;8.90;61.20
12819;DHT22;6474;53.474;9.894;2023-05-17T03:31:52;8.80;61.00
12819;DHT22;6474;53.474;9.894;2023-05-17T03:34:20;8.90;61.20
12819;DHT22;6474;53.474;9.894;2023-05-17T03:36:48;8.90;61.20
12819;DHT22;6474;53.474;9.894;2023-05-17T03:39:16;8.90;61.20
12819;DHT22;6474;53.474;9.894;2023-05-17T03:41:45;8.90;61.20
12819;DHT22;6474;53.474;9.894;2023-05-17T03:44:13;8.90;61.20
12819;DHT22;6474;53.474;9.894;2023-05-17T03:46:41;8.90;61.20
12819;DHT22;6474;53.474;9.894;2023-05-17T03:49:08;8.90;61.20
12819;DHT22;6474;53.474;9.894;2023-05-17T03:51:36;9.00;61.30
12819;DHT22;6474;53.474;9.894;2023-05-17T03:54:04;9.00;61.30
12819;DHT22;6474;53.474;9.894;2023-05-17T03:56:32;9.00;61.30
12819;DHT22;6474;53.474;9.894;2023-05-17T03:59:01;9.10;61.40
12819;DHT22;6474;53.474;9.894;2023-05-17T04:01:30;9.10;61.40
12819;DHT22;6474;53.474;9.894;2023-05-17T04:03:57;9.20;61.50
12819;DHT22;6474;53.474;9.894;2023-05-17T04:06:27;9.20;61.50
12819;DHT22;6474;53.474;9.894;2023-05-17T04:08:54;9.20;61.50
12819;DHT22;6474;53.474;9.894;2023-05-17T04:11:24;9.20;61.40
12819;DHT22;6474;53.474;9.894;2023-05-17T04:13:53;9.30;61.30
12819;DHT22;6474;53.474;9.894;2023-05-17T04:16:23;9.30;61.20
12819;DHT22;6474;53.474;9.894;2023-05-17T04:18:52;9.30;61.20
12819;DHT22;6474;53.474;9.894;2023-05-17T04:21:20;9.30;61.20
12819;DHT22;6474;53.474;9.894;2023-05-17T04:23:48;9.40;61.20
12819;DHT22;6474;53.474;9.894;2023-05-17T04:26:16;9.40;61.20
12819;DHT22;6474;53.474;9.894;2023-05-17T04:28:43;9.50;61.20
12819;DHT22;6474;53.474;9.894;2023-05-17T04:31:13;9.60;61.20
12819;DHT22;6474;53.474;9.894;2023-05-17T04:33:43;9.60;61.10
12819;DHT22;6474;53.474;9.894;2023-05-17T04:36:11;9.60;61.00
12819;DHT22;6474;53.474;9.894;2023-05-17T04:38:39;9.70;61.20
12819;DHT22;6474;53.474;9.894;2023-05-17T04:41:07;9.70;61.10
12819;DHT22;6474;53.474;9.894;2023-05-17T04:43:35;9.80;61.10
12819;DHT22;6474;53.474;9.894;2023-05-17T04:46:05;9.80;61.10
12819;DHT22;6474;53.474;9.894;2023-05-17T04:48:33;9.90;61.10
12819;DHT22;6474;53.474;9.894;2023-05-17T04:51:03;9.90;61.00
12819;DHT22;6474;53.474;9.894;2023-05-17T04:53:32;9.90;60.80
12819;DHT22;6474;53.474;9.894;2023-05-17T04:56:00;9.90;60.80
12819;DHT22;6474;53.474;9.894;2023-05-17T04:58:29;9.90;60.80
12819;DHT22;6474;53.474;9.894;2023-05-17T05:00:57;9.80;60.70
12819;DHT22;6474;53.474;9.894;2023-05-17T05:03:25;9.80;60.80
12819;DHT22;6474;53.474;9.894;2023-05-17T05:05:53;9.80;60.90
12819;DHT22;6474;53.474;9.894;2023-05-17T05:08:22;9.80;61.00
12819;DHT22;6474;53.474;9.894;2023-05-17T05:10:50;9.80;61.10
12819;DHT22;6474;53.474;9.894;2023-05-17T05:13:18;9.80;61.20
12819;DHT22;6474;53.474;9.894;2023-05-17T05:15:45;9.80;61.20
12819;DHT22;6474;53.474;9.894;2023-05-17T05:18:13;9.90;61.30
12819;DHT22;6474;53.474;9.894;2023-05-17T05:20:42;9.90;61.20
12819;DHT22;6474;53.474;9.894;2023-05-17T05:23:10;9.90;61.20
12819;DHT22;6474;53.474;9.894;2023-05-17T05:25:39;9.90;61.20
12819;DHT22;6474;53.474;9.894;2023-05-17T05:28:07;9.90;61.10
12819;DHT22;6474;53.474;9.894;2023-05-17T05:30:34;9.90;61.10
12819;DHT22;6474;53.474;9.894;2023-05-17T05:33:02;9.90;61.00
12819;DHT22;6474;53.474;9.894;2023-05-17T05:35:30;9.90;60.90
12819;DHT22;6474;53.474;9.894;2023-05-17T05:37:59;9.90;60.90
12819;DHT22;6474;53.474;9.894;2023-05-17T05:40:27;9.90;61.00
12819;DHT22;6474;53.474;9.894;2023-05-17T05:42:56;9.90;61.00
12819;DHT22;6474;53.474;9.894;2023-05-17T05:45:24;10.00;59.90
12819;DHT22;6474;53.474;9.894;2023-05-17T05:47:52;10.10;60.00
12819;DHT22;6474;53.474;9.894;2023-05-17T05:50:20;10.20;60.30
12819;DHT22;6474;53.474;9.894;2023-05-17T05:52:48;10.40;60.40
12819;DHT22;6474;53.474;9.894;2023-05-17T05:55:16;10.60;60.40
12819;DHT22;6474;53.474;9.894;2023-05-17T05:57:44;10.70;60.10
12819;DHT22;6474;53.474;9.894;2023-05-17T06:00:14;10.80;60.00
12819;DHT22;6474;53.474;9.894;2023-05-17T06:02:44;10.80;59.90
12819;DHT22;6474;53.474;9.894;2023-05-17T06:05:12;10.80;59.90
12819;DHT22;6474;53.474;9.894;2023-05-17T06:07:39;10.80;59.90
12819;DHT22;6474;53.474;9.894;2023-05-17T06:10:08;10.80;59.80
12819;DHT22;6474;53.474;9.894;2023-05-17T06:12:36;10.80;59.90
12819;DHT22;6474;53.474;9.894;2023-05-17T06:15:06;10.70;59.90
12819;DHT22;6474;53.474;9.894;2023-05-17T06:17:35;10.70;59.90
12819;DHT22;6474;53.474;9.894;2023-05-17T06:20:04;10.70;60.00
12819;DHT22;6474;53.474;9.894;2023-05-17T06:22:32;10.70;60.20
12819;DHT22;6474;53.474;9.894;2023-05-17T06:24:59;10.70;60.20
12819;DHT22;6474;53.474;9.894;2023-05-17T06:27:27;10.70;60.30
12819;DHT22;6474;53.474;9.894;2023-05-17T06:29:55;10.80;60.40
12819;DHT22;6474;53.474;9.894;2023-05-17T06:32:23;10.80;60.40
12819;DHT22;6474;53.474;9.894;2023-05-17T06:34:52;10.90;60.30
12819;DHT22;6474;53.474;9.894;2023-05-17T06:37:20;11.00;61.00
12819;DHT22;6474;53.474;9.894;2023-05-17T06:39:49;11.00;60.30
12819;DHT22;6474;53.474;9.894;2023-05-17T06:42:35;11.10;60.40
12819;DHT22;6474;53.474;9.894;2023-05-17T06:45:03;11.20;60.30
12819;DHT22;6474;53.474;9.894;2023-05-17T06:47:31;11.20;60.10
12819;DHT22;6474;53.474;9.894;2023-05-17T06:50:00;11.20;59.90
12819;DHT22;6474;53.474;9.894;2023-05-17T06:52:29;11.10;59.80
12819;DHT22;6474;53.474;9.894;2023-05-17T06:54:56;11.00;59.80
12819;DHT22;6474;53.474;9.894;2023-05-17T06:57:24;10.90;59.90
12819;DHT22;6474;53.474;9.894;2023-05-17T06:59:52;10.70;60.00
12819;DHT22;6474;53.474;9.894;2023-05-17T07:02:20;10.70;60.20
12819;DHT22;6474;53.474;9.894;2023-05-17T07:04:48;10.60;60.20
12819;DHT22;6474;53.474;9.894;2023-05-17T07:07:17;10.70;60.50
12819;DHT22;6474;53.474;9.894;2023-05-17T07:09:45;10.80;60.60
12819;DHT22;6474;53.474;9.894;2023-05-17T07:12:13;10.90;60.70
12819;DHT22;6474;53.474;9.894;2023-05-17T07:14:40;11.10;60.70
12819;DHT22;6474;53.474;9.894;2023-05-17T07:17:09;11.20;60.50
12819;DHT22;6474;53.474;9.894;2023-05-17T07:19:37;11.30;60.30
12819;DHT22;6474;53.474;9.894;2023-05-17T07:22:05;11.40;60.10
12819;DHT22;6474;53.474;9.894;2023-05-17T07:24:34;11.50;60.00
12819;DHT22;6474;53.474;9.894;2023-05-17T07:27:02;11.60;60.10
12819;DHT22;6474;53.474;9.894;2023-05-17T07:29:30;11.60;59.90
12819;DHT22;6474;53.474;9.894;2023-05-17T07:31:58;11.60;59.80
12819;DHT22;6474;53.474;9.894;2023-05-17T07:34:26;11.70;59.90
12819;DHT22;6474;53.474;9.894;2023-05-17T07:36:54;11.80;59.90
12819;DHT22;6474;53.474;9.894;2023-05-17T07:39:22;11.80;59.80
12819;DHT22;6474;53.474;9.894;2023-05-17T07:41:51;11.80;59.80
12819;DHT22;6474;53.474;9.894;2023-05-17T07:44:19;11.80;59.80
12819;DHT22;6474;53.474;9.894;2023-05-17T07:46:47;11.90;59.90
12819;DHT22;6474;53.474;9.894;2023-05-17T07:49:15;11.90;59.90
12819;DHT22;6474;53.474;9.894;2023-05-17T07:51:43;12.00;60.00
12819;DHT22;6474;53.474;9.894;2023-05-17T07:54:20;12.10;60.00
12819;DHT22;6474;53.474;9.894;2023-05-17T07:56:50;12.20;59.90
12819;DHT22;6474;53.474;9.894;2023-05-17T07:59:20;12.20;59.90
12819;DHT22;6474;53.474;9.894;2023-05-17T08:01:48;12.20;59.90
12819;DHT22;6474;53.474;9.894;2023-05-17T08:04:16;12.30;59.80
12819;DHT22;6474;53.474;9.894;2023-05-17T08:06:44;12.30;59.70
12819;DHT22;6474;53.474;9.894;2023-05-17T08:09:13;12.50;59.80
12819;DHT22;6474;53.474;9.894;2023-05-17T08:11:42;12.50;59.70
12819;DHT22;6474;53.474;9.894;2023-05-17T08:14:14;12.50;59.70
12819;DHT22;6474;53.474;9.894;2023-05-17T08:16:44;12.50;59.70
12819;DHT22;6474;53.474;9.894;2023-05-17T08:19:13;12.40;59.60
12819;DHT22;6474;53.474;9.894;2023-05-17T08:21:42;12.40;59.70
12819;DHT22;6474;53.474;9.894;2023-05-17T08:24:11;12.30;59.60
12819;DHT22;6474;53.474;9.894;2023-05-17T08:26:39;12.20;59.70
12819;DHT22;6474;53.474;9.894;2023-05-17T08:29:07;12.20;59.90
12819;DHT22;6474;53.474;9.894;2023-05-17T08:31:37;12.30;59.90
12819;DHT22;6474;53.474;9.894;2023-05-17T08:34:05;12.30;60.00
12819;DHT22;6474;53.474;9.894;2023-05-17T08:36:33;12.30;60.00
12819;DHT22;6474;53.474;9.894;2023-05-17T08:39:01;12.40;60.10
12819;DHT22;6474;53.474;9.894;2023-05-17T08:41:29;12.40;60.00
12819;DHT22;6474;53.474;9.894;2023-05-17T08:43:58;12.50;60.10
12819;DHT22;6474;53.474;9.894;2023-05-17T08:46:27;12.60;60.00
12819;DHT22;6474;53.474;9.894;2023-05-17T08:48:58;12.60;59.80
12819;DHT22;6474;53.474;9.894;2023-05-17T08:51:28;12.80;60.00
12819;DHT22;6474;53.474;9.894;2023-05-17T08:53:57;12.80;59.80
12819;DHT22;6474;53.474;9.894;2023-05-17T08:56:27;13.00;59.90
12819;DHT22;6474;53.474;9.894;2023-05-17T08:58:57;13.00;59.80
12819;DHT22;6474;53.474;9.894;2023-05-17T09:01:26;13.10;59.80
12819;DHT22;6474;53.474;9.894;2023-05-17T09:04:00;13.20;59.60
12819;DHT22;6474;53.474;9.894;2023-05-17T09:06:29;13.10;59.50
12819;DHT22;6474;53.474;9.894;2023-05-17T09:08:58;13.20;59.60
12819;DHT22;6474;53.474;9.894;2023-05-17T09:11:28;13.20;59.50
12819;DHT22;6474;53.474;9.894;2023-05-17T09:14:00;13.10;59.50
12819;DHT22;6474;53.474;9.894;2023-05-17T09:16:28;13.10;59.60
12819;DHT22;6474;53.474;9.894;2023-05-17T09:18:57;13.10;59.80
12819;DHT22;6474;53.474;9.894;2023-05-17T09:21:28;13.20;59.90
12819;DHT22;6474;53.474;9.894;2023-05-17T09:23:57;13.30;59.90
12819;DHT22;6474;53.474;9.894;2023-05-17T09:26:37;13.40;59.90
12819;DHT22;6474;53.474;9.894;2023-05-17T09:29:07;13.40;59.90
12819;DHT22;6474;53.474;9.894;2023-05-17T09:31:35;13.40;59.90
12819;DHT22;6474;53.474;9.894;2023-05-17T09:34:03;13.40;59.80
12819;DHT22;6474;53.474;9.894;2023-05-17T09:36:34;13.40;59.80
12819;DHT22;6474;53.474;9.894;2023-05-17T09:39:05;13.40;59.80
12819;DHT22;6474;53.474;9.894;2023-05-17T09:41:40;13.30;59.60
12819;DHT22;6474;53.474;9.894;2023-05-17T09:44:09;13.20;59.50
12819;DHT22;6474;53.474;9.894;2023-05-17T09:46:40;13.10;59.50
12819;DHT22;6474;53.474;9.894;2023-05-17T09:49:09;13.20;59.60
12819;DHT22;6474;53.474;9.894;2023-05-17T09:51:40;13.30;59.50
12819;DHT22;6474;53.474;9.894;2023-05-17T09:54:08;13.30;59.40
12819;DHT22;6474;53.474;9.894;2023-05-17T09:56:37;13.40;59.50
12819;DHT22;6474;53.474;9.894;2023-05-17T09:59:11;13.60;59.60
12819;DHT22;6474;53.474;9.894;2023-05-17T10:01:40;13.80;59.60
12819;DHT22;6474;53.474;9.894;2023-05-17T10:04:08;13.70;59.30
12819;DHT22;6474;53.474;9.894;2023-05-17T10:06:39;13.50;59.30
12819;DHT22;6474;53.474;9.894;2023-05-17T10:09:18;13.30;59.40
12819;DHT22;6474;53.474;9.894;2023-05-17T10:11:50;13.20;59.70
12819;DHT22;6474;53.474;9.894;2023-05-17T10:14:22;13.10;59.90
12819;DHT22;6474;53.474;9.894;2023-05-17T10:16:51;13.20;60.20
12819;DHT22;6474;53.474;9.894;2023-05-17T10:19:20;13.20;60.00
12819;DHT22;6474;53.474;9.894;2023-05-17T10:21:51;13.20;60.00
12819;DHT22;6474;53.474;9.894;2023-05-17T10:24:19;13.40;60.20
12819;DHT22;6474;53.474;9.894;2023-05-17T10:26:49;13.60;60.10
12819;DHT22;6474;53.474;9.894;2023-05-17T10:29:17;13.70;59.90
12819;DHT22;6474;53.474;9.894;2023-05-17T10:31:48;13.70;59.70
12819;DHT22;6474;53.474;9.894;2023-05-17T10:34:18;13.60;59.50
12819;DHT22;6474;53.474;9.894;2023-05-17T10:36:49;13.60;59.50
12819;DHT22;6474;53.474;9.894;2023-05-17T10:39:17;13.50;59.20
12819;DHT22;6474;53.474;9.894;2023-05-17T10:41:47;13.40;59.20
12819;DHT22;6474;53.474;9.894;2023-05-17T10:44:18;13.40;59.40
12819;DHT22;6474;53.474;9.894;2023-05-17T10:46:53;13.50;60.10
12819;DHT22;6474;53.474;9.894;2023-05-17T10:49:23;13.70;59.40
12819;DHT22;6474;53.474;9.894;2023-05-17T10:51:55;13.80;59.20
12819;DHT22;6474;53.474;9.894;2023-05-17T10:54:33;13.90;59.10
12819;DHT22;6474;53.474;9.894;2023-05-17T10:57:04;14.10;59.00
12819;DHT22;6474;53.474;9.894;2023-05-17T10:59:34;14.30;59.00
12819;DHT22;6474;53.474;9.894;2023-05-17T11:02:03;14.40;58.90
12819;DHT22;6474;53.474;9.894;2023-05-17T11:04:33;14.50;59.00
12819;DHT22;6474;53.474;9.894;2023-05-17T11:07:26;14.70;58.90
12819;DHT22;6474;53.474;9.894;2023-05-17T11:10:02;14.80;58.90
12819;DHT22;6474;53.474;9.894;2023-05-17T11:12:34;14.70;58.90
12819;DHT22;6474;53.474;9.894;2023-05-17T11:15:06;14.60;58.90
12819;DHT22;6474;53.474;9.894;2023-05-17T11:17:46;14.50;59.00
12819;DHT22;6474;53.474;9.894;2023-05-17T11:20:30;14.60;59.00
12819;DHT22;6474;53.474;9.894;2023-05-17T11:23:03;14.60;58.90
12819;DHT22;6474;53.474;9.894;2023-05-17T11:25:32;14.60;58.70
12819;DHT22;6474;53.474;9.894;2023-05-17T11:28:06;14.50;58.60
12819;DHT22;6474;53.474;9.894;2023-05-17T11:30:39;14.50;58.60
12819;DHT22;6474;53.474;9.894;2023-05-17T11:33:08;14.50;58.80
12819;DHT22;6474;53.474;9.894;2023-05-17T11:35:53;14.60;58.90
12819;DHT22;6474;53.474;9.894;2023-05-17T11:38:26;14.80;58.90
12819;DHT22;6474;53.474;9.894;2023-05-17T11:40:56;14.80;58.70
12819;DHT22;6474;53.474;9.894;2023-05-17T11:43:25;14.80;58.60
12819;DHT22;6474;53.474;9.894;2023-05-17T11:45:57;14.80;58.80
12819;DHT22;6474;53.474;9.894;2023-05-17T11:48:29;15.00;59.00
12819;DHT22;6474;53.474;9.894;2023-05-17T11:50:57;15.00;58.90
12819;DHT22;6474;53.474;9.894;2023-05-17T11:53:30;14.90;58.70
12819;DHT22;6474;53.474;9.894;2023-05-17T11:56:01;14.80;58.90
12819;DHT22;6474;53.474;9.894;2023-05-17T11:58:30;14.70;59.10
12819;DHT22;6474;53.474;9.894;2023-05-17T12:00:58;14.60;59.10
12819;DHT22;6474;53.474;9.894;2023-05-17T12:03:27;14.70;59.20
12819;DHT22;6474;53.474;9.894;2023-05-17T12:06:01;14.70;59.10
12819;DHT22;6474;53.474;9.894;2023-05-17T12:08:31;14.60;58.80
12819;DHT22;6474;53.474;9.894;2023-05-17T12:11:00;14.70;58.90
12819;DHT22;6474;53.474;9.894;2023-05-17T12:13:29;14.70;58.80
12819;DHT22;6474;53.474;9.894;2023-05-17T12:15:59;14.80;59.00
12819;DHT22;6474;53.474;9.894;2023-05-17T12:18:34;15.00;59.10
12819;DHT22;6474;53.474;9.894;2023-05-17T12:21:04;15.20;59.10
12819;DHT22;6474;53.474;9.894;2023-05-17T12:23:35;15.10;58.60
12819;DHT22;6474;53.474;9.894;2023-05-17T12:26:07;15.10;58.80
12819;DHT22;6474;53.474;9.894;2023-05-17T12:28:36;15.10;59.00
12819;DHT22;6474;53.474;9.894;2023-05-17T12:31:07;15.00;59.00
12819;DHT22;6474;53.474;9.894;2023-05-17T12:33:37;14.80;58.80
12819;DHT22;6474;53.474;9.894;2023-05-17T12:36:08;14.70;58.80
12819;DHT22;6474;53.474;9.894;2023-05-17T12:38:39;14.70;58.90
12819;DHT22;6474;53.474;9.894;2023-05-17T12:41:10;14.80;58.90
12819;DHT22;6474;53.474;9.894;2023-05-17T12:43:39;14.70;58.80
12819;DHT22;6474;53.474;9.894;2023-05-17T12:46:08;14.80;58.90
12819;DHT22;6474;53.474;9.894;2023-05-17T12:48:47;14.80;58.90
12819;DHT22;6474;53.474;9.894;2023-05-17T12:51:17;14.70;58.90
12819;DHT22;6474;53.474;9.894;2023-05-17T12:53:50;14.60;59.00
12819;DHT22;6474;53.474;9.894;2023-05-17T12:56:20;14.50;59.00
12819;DHT22;6474;53.474;9.894;2023-05-17T12:59:04;14.40;58.90
12819;DHT22;6474;53.474;9.894;2023-05-17T13:01:33;14.40;58.90
12819;DHT22;6474;53.474;9.894;2023-05-17T13:04:01;14.40;58.80
12819;DHT22;6474;53.474;9.894;2023-05-17T13:06:42;14.40;58.80
12819;DHT22;6474;53.474;9.894;2023-05-17T13:09:11;14.50;58.80
12819;DHT22;6474;53.474;9.894;2023-05-17T13:11:40;14.70;59.00
12819;DHT22;6474;53.474;9.894;2023-05-17T13:14:08;14.90;59.00
12819;DHT22;6474;53.474;9.894;2023-05-17T13:16:38;15.00;58.90
12819;DHT22;6474;53.474;9.894;2023-05-17T13:19:12;15.10;58.80
12819;DHT22;6474;53.474;9.894;2023-05-17T13:21:41;15.00;58.80
12819;DHT22;6474;53.474;9.894;2023-05-17T13:24:09;14.90;58.80
12819;DHT22;6474;53.474;9.894;2023-05-17T13:26:38;14.80;58.90
12819;DHT22;6474;53.474;9.894;2023-05-17T13:29:06;14.70;59.10
12819;DHT22;6474;53.474;9.894;2023-05-17T13:31:34;14.70;59.20
12819;DHT22;6474;53.474;9.894;2023-05-17T13:34:02;14.70;59.30
12819;DHT22;6474;53.474;9.894;2023-05-17T13:36:30;14.80;59.30
12819;DHT22;6474;53.474;9.894;2023-05-17T13:38:57;14.90;59.30
12819;DHT22;6474;53.474;9.894;2023-05-17T13:41:27;15.00;59.10
12819;DHT22;6474;53.474;9.894;2023-05-17T13:43:56;14.90;59.00
12819;DHT22;6474;53.474;9.894;2023-05-17T13:46:24;14.80;58.90
12819;DHT22;6474;53.474;9.894;2023-05-17T13:48:52;14.60;58.70
12819;DHT22;6474;53.474;9.894;2023-05-17T13:51:20;14.50;58.90
12819;DHT22;6474;53.474;9.894;2023-05-17T13:53:48;14.40;58.90
12819;DHT22;6474;53.474;9.894;2023-05-17T13:56:16;14.40;59.20
12819;DHT22;6474;53.474;9.894;2023-05-17T13:58:44;14.50;59.20
12819;DHT22;6474;53.474;9.894;2023-05-17T14:01:13;14.60;59.10
12819;DHT22;6474;53.474;9.894;2023-05-17T14:03:41;14.70;59.10
12819;DHT22;6474;53.474;9.894;2023-05-17T14:06:09;14.60;59.00
12819;DHT22;6474;53.474;9.894;2023-05-17T14:08:37;14.60;58.90
12819;DHT22;6474;53.474;9.894;2023-05-17T14:11:05;14.50;58.90
12819;DHT22;6474;53.474;9.894;2023-05-17T14:13:33;14.50;59.00
12819;DHT22;6474;53.474;9.894;2023-05-17T14:16:01;14.40;59.00
12819;DHT22;6474;53.474;9.894;2023-05-17T14:18:30;14.40;59.10
12819;DHT22;6474;53.474;9.894;2023-05-17T14:20:58;14.40;59.20
12819;DHT22;6474;53.474;9.894;2023-05-17T14:23:26;14.30;59.20
12819;DHT22;6474;53.474;9.894;2023-05-17T14:25:54;14.30;59.20
12819;DHT22;6474;53.474;9.894;2023-05-17T14:28:23;14.30;59.20
12819;DHT22;6474;53.474;9.894;2023-05-17T14:30:51;14.30;59.20
12819;DHT22;6474;53.474;9.894;2023-05-17T14:33:18;14.30;59.10
12819;DHT22;6474;53.474;9.894;2023-05-17T14:35:48;14.30;59.10
12819;DHT22;6474;53.474;9.894;2023-05-17T14:38:16;14.20;59.10
12819;DHT22;6474;53.474;9.894;2023-05-17T14:40:45;14.10;59.10
12819;DHT22;6474;53.474;9.894;2023-05-17T14:43:14;14.10;59.10
12819;DHT22;6474;53.474;9.894;2023-05-17T14:45:41;14.00;59.10
12819;DHT22;6474;53.474;9.894;2023-05-17T14:48:09;14.00;59.10
12819;DHT22;6474;53.474;9.894;2023-05-17T14:50:37;13.90;59.10
12819;DHT22;6474;53.474;9.894;2023-05-17T14:53:06;14.00;59.10
12819;DHT22;6474;53.474;9.894;2023-05-17T14:55:34;14.00;59.10
12819;DHT22;6474;53.474;9.894;2023-05-17T14:58:02;13.90;59.00
12819;DHT22;6474;53.474;9.894;2023-05-17T15:00:30;13.90;59.10
12819;DHT22;6474;53.474;9.894;2023-05-17T15:02:58;13.90;59.00
12819;DHT22;6474;53.474;9.894;2023-05-17T15:05:26;13.90;59.10
12819;DHT22;6474;53.474;9.894;2023-05-17T15:07:55;13.90;59.10
12819;DHT22;6474;53.474;9.894;2023-05-17T15:10:24;14.00;59.10
12819;DHT22;6474;53.474;9.894;2023-05-17T15:12:52;14.00;59.00
12819;DHT22;6474;53.474;9.894;2023-05-17T15:15:20;14.00;58.90
12819;DHT22;6474;53.474;9.894;2023-05-17T15:17:48;13.90;58.80
12819;DHT22;6474;53.474;9.894;2023-05-17T15:20:16;13.90;58.90
12819;DHT22;6474;53.474;9.894;2023-05-17T15:22:45;13.90;58.90
12819;DHT22;6474;53.474;9.894;2023-05-17T15:25:14;13.80;58.90
12819;DHT22;6474;53.474;9.894;2023-05-17T15:27:43;13.70;58.90
12819;DHT22;6474;53.474;9.894;2023-05-17T15:30:12;13.70;58.90
12819;DHT22;6474;53.474;9.894;2023-05-17T15:32:40;13.70;58.90
12819;DHT22;6474;53.474;9.894;2023-05-17T15:35:08;13.80;59.00
12819;DHT22;6474;53.474;9.894;2023-05-17T15:37:36;13.80;58.90
12819;DHT22;6474;53.474;9.894;2023-05-17T15:40:06;13.90;58.90
12819;DHT22;6474;53.474;9.894;2023-05-17T15:42:35;13.80;58.80
12819;DHT22;6474;53.474;9.894;2023-05-17T15:45:06;13.70;58.70
12819;DHT22;6474;53.474;9.894;2023-05-17T15:47:34;13.60;58.70
12819;DHT22;6474;53.474;9.894;2023-05-17T15:50:09;13.60;58.80
12819;DHT22;6474;53.474;9.894;2023-05-17T15:52:38;13.60;58.90
12819;DHT22;6474;53.474;9.894;2023-05-17T15:55:06;13.50;58.80
12819;DHT22;6474;53.474;9.894;2023-05-17T15:57:34;13.60;58.90
12819;DHT22;6474;53.474;9.894;2023-05-17T16:00:05;13.60;58.90
12819;DHT22;6474;53.474;9.894;2023-05-17T16:02:33;13.60;58.80
12819;DHT22;6474;53.474;9.894;2023-05-17T16:05:01;13.60;58.80
12819;DHT22;6474;53.474;9.894;2023-05-17T16:07:30;13.60;58.70